createdAt,value
2022-12-31T00:01:02.253Z,53.87
2022-12-31T00:03:30.686Z,55.23
2022-12-31T00:06:00.422Z,51.47
2022-12-31T00:08:28.769Z,52.30
2022-12-31T00:10:57.174Z,54.10
2022-12-31T00:13:25.499Z,53.47
2022-12-31T00:15:53.877Z,57.50
2022-12-31T00:18:22.211Z,58.43
2022-12-31T00:20:50.521Z,51.67
2022-12-31T00:23:20.212Z,56.77
2022-12-31T00:25:48.555Z,57.77
2022-12-31T00:28:16.895Z,56.33
2022-12-31T00:30:45.338Z,55.87
2022-12-31T00:33:13.731Z,56.00
2022-12-31T00:35:42.182Z,61.95
2022-12-31T00:38:10.622Z,53.30
2022-12-31T00:40:40.393Z,51.50
2022-12-31T00:43:08.709Z,55.70
2022-12-31T00:45:36.970Z,56.10
2022-12-31T00:48:05.685Z,60.80
2022-12-31T00:50:33.997Z,54.70
2022-12-31T00:53:02.238Z,53.27
2022-12-31T00:55:32.087Z,52.83
2022-12-31T00:58:01.704Z,59.20
2022-12-31T01:00:30.043Z,52.90
2022-12-31T01:02:58.368Z,55.33
2022-12-31T01:05:28.761Z,55.57
2022-12-31T01:07:57.034Z,59.40
2022-12-31T01:10:39.510Z,54.27
2022-12-31T01:13:09.424Z,65.97
2022-12-31T01:15:39.464Z,61.60
2022-12-31T01:18:09.183Z,58.03
2022-12-31T01:20:38.248Z,60.30
2022-12-31T01:23:06.925Z,62.83
2022-12-31T01:25:37.517Z,59.63
2022-12-31T01:28:06.391Z,56.43
2022-12-31T01:30:38.994Z,64.10
2022-12-31T01:33:07.346Z,61.20
2022-12-31T01:35:36.879Z,64.93
2022-12-31T01:38:05.488Z,59.70
2022-12-31T01:40:37.948Z,63.50
2022-12-31T01:43:16.700Z,59.73
2022-12-31T01:45:48.469Z,64.80
2022-12-31T01:48:22.183Z,64.47
2022-12-31T01:50:51.002Z,61.90
2022-12-31T01:53:20.020Z,62.10
2022-12-31T01:55:51.863Z,60.80
2022-12-31T01:58:24.603Z,62.67
2022-12-31T02:00:55.028Z,61.23
2022-12-31T02:03:26.183Z,53.40
2022-12-31T02:05:58.214Z,59.20
2022-12-31T02:08:26.614Z,59.77
2022-12-31T02:10:54.854Z,64.20
2022-12-31T02:13:23.394Z,68.77
2022-12-31T02:16:00.764Z,56.60
2022-12-31T02:18:36.088Z,60.40
2022-12-31T02:21:29.619Z,63.17
2022-12-31T02:24:21.621Z,66.00
2022-12-31T02:27:00.718Z,69.00
2022-12-31T02:29:59.713Z,64.83
2022-12-31T02:32:50.204Z,58.50
2022-12-31T02:35:23.313Z,61.80
2022-12-31T02:37:56.025Z,62.27
2022-12-31T02:40:24.796Z,61.17
2022-12-31T02:42:55.501Z,57.60
2022-12-31T02:45:29.278Z,66.77
2022-12-31T02:48:22.959Z,58.30
2022-12-31T02:51:01.440Z,61.17
2022-12-31T02:54:02.760Z,57.50
2022-12-31T02:56:39.086Z,59.77
2022-12-31T02:59:31.869Z,56.80
2022-12-31T03:02:19.390Z,61.27
2022-12-31T03:04:53.401Z,62.17
2022-12-31T03:07:24.607Z,60.27
2022-12-31T03:09:53.333Z,64.33
2022-12-31T03:12:41.622Z,64.03
2022-12-31T03:15:19.958Z,60.90
2022-12-31T03:18:00.844Z,63.57
2022-12-31T03:20:51.221Z,66.70
2022-12-31T03:23:23.099Z,58.87
2022-12-31T03:25:50.465Z,64.23
2022-12-31T03:28:20.774Z,60.23
2022-12-31T03:30:53.164Z,62.20
2022-12-31T03:33:22.425Z,62.67
2022-12-31T03:35:52.852Z,64.77
2022-12-31T03:38:21.224Z,65.00
2022-12-31T03:40:52.123Z,67.07
2022-12-31T03:43:20.759Z,63.93
2022-12-31T03:45:51.792Z,64.73
2022-12-31T03:48:21.018Z,70.97
2022-12-31T03:50:49.383Z,66.13
2022-12-31T03:53:19.450Z,63.87
2022-12-31T03:55:52.210Z,69.37
2022-12-31T03:58:20.497Z,65.50
2022-12-31T04:00:48.945Z,66.23
2022-12-31T04:03:17.277Z,67.40
2022-12-31T04:05:45.613Z,63.93
2022-12-31T04:08:13.929Z,60.47
2022-12-31T04:10:43.647Z,64.00
2022-12-31T04:13:11.945Z,56.60
2022-12-31T04:15:40.233Z,67.22
2022-12-31T04:18:14.356Z,60.67
2022-12-31T04:20:42.629Z,60.03
2022-12-31T04:23:11.094Z,57.63
2022-12-31T04:25:39.409Z,59.30
2022-12-31T04:28:09.066Z,61.53
2022-12-31T04:30:37.368Z,66.43
2022-12-31T04:33:05.710Z,63.77
2022-12-31T04:35:34.001Z,57.90
2022-12-31T04:38:02.212Z,65.67
2022-12-31T04:40:30.492Z,68.67
2022-12-31T04:42:58.838Z,62.27
2022-12-31T04:45:28.753Z,73.63
2022-12-31T04:47:57.045Z,63.07
2022-12-31T04:50:25.348Z,64.10
2022-12-31T04:52:53.670Z,60.90
2022-12-31T04:55:21.895Z,64.87
2022-12-31T04:57:50.185Z,64.33
2022-12-31T05:00:18.704Z,68.70
2022-12-31T05:02:48.655Z,68.40
2022-12-31T05:05:17.281Z,60.50
2022-12-31T05:07:45.590Z,60.53
2022-12-31T05:10:14.126Z,74.40
2022-12-31T05:12:42.438Z,67.87
2022-12-31T05:15:11.149Z,68.73
2022-12-31T05:17:39.532Z,68.77
2022-12-31T05:20:10.158Z,67.97
2022-12-31T05:22:38.460Z,74.55
2022-12-31T05:25:07.782Z,64.50
2022-12-31T05:27:37.936Z,64.83
2022-12-31T05:30:07.358Z,69.23
2022-12-31T05:32:36.200Z,72.77
2022-12-31T05:35:04.595Z,69.70
2022-12-31T05:37:34.704Z,66.03
2022-12-31T05:40:03.262Z,67.33
2022-12-31T05:42:31.673Z,61.50
2022-12-31T05:44:59.957Z,65.87
2022-12-31T05:47:28.512Z,72.22
2022-12-31T05:49:56.932Z,67.53
2022-12-31T05:52:25.315Z,68.23
2022-12-31T05:54:55.021Z,67.63
2022-12-31T05:57:23.335Z,65.57
2022-12-31T05:59:53.557Z,66.07
2022-12-31T06:02:22.476Z,70.37
2022-12-31T06:04:50.932Z,68.30
2022-12-31T06:07:19.441Z,66.83
2022-12-31T06:09:47.719Z,66.50
2022-12-31T06:12:17.457Z,72.63
2022-12-31T06:14:46.079Z,71.17
2022-12-31T06:17:14.477Z,70.00
2022-12-31T06:19:42.844Z,69.50
2022-12-31T06:22:11.197Z,68.33
2022-12-31T06:24:39.577Z,67.80
2022-12-31T06:27:07.908Z,65.63
2022-12-31T06:29:37.725Z,67.90
2022-12-31T06:32:06.711Z,68.03
2022-12-31T06:34:35.120Z,70.07
2022-12-31T06:37:06.272Z,73.03
2022-12-31T06:39:34.691Z,69.67
2022-12-31T06:42:02.965Z,74.83
2022-12-31T06:44:31.435Z,72.00
2022-12-31T06:47:01.154Z,70.20
2022-12-31T06:49:29.501Z,74.63
2022-12-31T06:51:57.805Z,77.70
2022-12-31T06:54:26.097Z,70.73
2022-12-31T06:56:54.897Z,73.10
2022-12-31T06:59:26.521Z,81.25
2022-12-31T07:02:13.601Z,75.60
2022-12-31T07:05:10.142Z,72.20
2022-12-31T07:07:53.879Z,81.17
2022-12-31T07:10:32.058Z,72.10
2022-12-31T07:13:12.368Z,84.27
2022-12-31T07:16:02.443Z,76.00
2022-12-31T07:18:39.132Z,76.27
2022-12-31T07:21:13.698Z,82.77
2022-12-31T07:23:42.799Z,75.70
2022-12-31T07:26:19.937Z,80.75
2022-12-31T07:28:57.857Z,76.40
2022-12-31T07:31:40.245Z,73.33
2022-12-31T07:34:20.423Z,68.80
2022-12-31T07:37:02.653Z,62.37
2022-12-31T07:39:40.821Z,67.03
2022-12-31T07:42:16.802Z,72.13
2022-12-31T07:45:02.379Z,68.43
2022-12-31T07:47:31.401Z,76.50
2022-12-31T07:50:01.920Z,62.20
2022-12-31T07:52:30.767Z,68.27
2022-12-31T07:54:59.120Z,65.67
2022-12-31T07:57:33.389Z,62.90
2022-12-31T08:00:07.990Z,69.70
2022-12-31T08:02:54.221Z,63.03
2022-12-31T08:05:32.520Z,69.27
2022-12-31T08:08:13.680Z,62.87
2022-12-31T08:10:52.660Z,59.53
2022-12-31T08:13:22.234Z,68.10
2022-12-31T08:15:51.084Z,61.60
2022-12-31T08:18:19.920Z,63.23
2022-12-31T08:20:56.854Z,66.40
2022-12-31T08:23:34.090Z,66.77
2022-12-31T08:26:12.681Z,62.00
2022-12-31T08:28:53.970Z,62.57
2022-12-31T08:31:26.658Z,60.97
2022-12-31T08:34:05.731Z,61.77
2022-12-31T08:36:46.639Z,64.37
2022-12-31T08:39:35.103Z,57.10
2022-12-31T08:42:09.094Z,59.90
2022-12-31T08:44:46.010Z,59.87
2022-12-31T08:47:24.318Z,63.63
2022-12-31T08:49:53.114Z,61.07
2022-12-31T08:52:25.985Z,60.40
2022-12-31T08:54:55.016Z,57.60
2022-12-31T08:57:31.235Z,63.57
2022-12-31T09:00:07.177Z,54.10
2022-12-31T09:03:04.312Z,55.03
2022-12-31T09:05:37.698Z,51.33
2022-12-31T09:08:16.896Z,55.03
2022-12-31T09:10:52.960Z,55.70
2022-12-31T09:13:30.541Z,48.20
2022-12-31T09:16:07.322Z,55.93
2022-12-31T09:18:40.855Z,58.40
2022-12-31T09:21:10.960Z,50.30
2022-12-31T09:23:41.646Z,51.93
2022-12-31T09:26:25.263Z,53.10
2022-12-31T09:29:00.914Z,54.80
2022-12-31T09:31:35.788Z,55.00
2022-12-31T09:34:13.778Z,51.03
2022-12-31T09:36:47.753Z,50.40
2022-12-31T09:39:23.818Z,52.27
2022-12-31T09:42:25.418Z,51.63
2022-12-31T09:45:26.904Z,48.23
2022-12-31T09:48:29.244Z,55.28
2022-12-31T09:51:13.648Z,51.13
2022-12-31T09:54:05.207Z,49.83
2022-12-31T09:56:40.687Z,47.70
2022-12-31T09:59:19.059Z,55.20
2022-12-31T10:01:52.127Z,51.33
2022-12-31T10:04:57.381Z,54.03
2022-12-31T10:07:52.828Z,47.87
2022-12-31T10:10:27.859Z,47.97
2022-12-31T10:13:23.289Z,46.80
2022-12-31T10:16:14.915Z,48.30
2022-12-31T10:18:59.455Z,48.10
2022-12-31T10:21:42.219Z,42.73
2022-12-31T10:24:31.356Z,46.30
2022-12-31T10:27:14.296Z,45.70
2022-12-31T10:29:48.883Z,50.00
2022-12-31T10:32:24.916Z,43.93
2022-12-31T10:35:00.747Z,42.80
2022-12-31T10:37:35.815Z,42.60
2022-12-31T10:40:19.492Z,40.63
2022-12-31T10:43:23.174Z,39.73
2022-12-31T10:46:23.369Z,42.07
2022-12-31T10:49:47.667Z,39.17
2022-12-31T10:52:52.744Z,40.83
2022-12-31T10:55:57.766Z,41.27
2022-12-31T10:59:02.325Z,38.53
2022-12-31T11:01:43.459Z,39.23
2022-12-31T11:04:46.226Z,41.00
2022-12-31T11:07:48.268Z,43.37
2022-12-31T11:10:49.860Z,39.47
2022-12-31T11:14:03.069Z,44.43
2022-12-31T11:16:46.047Z,37.53
2022-12-31T11:19:22.868Z,35.97
2022-12-31T11:22:08.420Z,37.80
2022-12-31T11:24:52.480Z,35.37
2022-12-31T11:27:31.840Z,33.07
2022-12-31T11:30:12.034Z,34.70
2022-12-31T11:32:58.459Z,37.97
2022-12-31T11:35:34.538Z,34.38
2022-12-31T11:38:17.907Z,33.10
2022-12-31T11:40:56.127Z,29.67
2022-12-31T11:43:31.402Z,36.03
2022-12-31T11:46:29.309Z,32.43
2022-12-31T11:49:16.538Z,33.73
2022-12-31T11:52:08.271Z,33.87
2022-12-31T11:54:51.410Z,36.15
2022-12-31T11:57:27.326Z,38.33
2022-12-31T12:00:00.535Z,38.27
2022-12-31T12:02:30.981Z,35.67
2022-12-31T12:05:08.570Z,41.13
2022-12-31T12:07:39.103Z,41.90
2022-12-31T12:10:23.349Z,32.03
2022-12-31T12:12:52.663Z,37.43
2022-12-31T12:15:24.581Z,35.53
2022-12-31T12:17:56.009Z,31.60
2022-12-31T12:20:31.833Z,35.90
2022-12-31T12:23:01.511Z,35.57
2022-12-31T12:25:40.374Z,33.53
2022-12-31T12:28:22.738Z,38.07
2022-12-31T12:30:57.874Z,31.87
2022-12-31T12:33:27.020Z,33.93
2022-12-31T12:35:55.375Z,31.50
2022-12-31T12:38:24.812Z,36.57
2022-12-31T12:40:59.761Z,34.87
2022-12-31T12:43:29.900Z,41.30
2022-12-31T12:46:01.790Z,38.90
2022-12-31T12:48:36.636Z,35.47
2022-12-31T12:51:15.327Z,37.47
2022-12-31T12:53:49.913Z,33.93
2022-12-31T12:56:31.694Z,35.50
2022-12-31T12:59:27.763Z,37.70
2022-12-31T13:02:09.945Z,32.97
2022-12-31T13:04:53.472Z,32.70
2022-12-31T13:07:33.251Z,28.53
2022-12-31T13:10:22.241Z,29.00
2022-12-31T13:15:56.039Z,28.63
2022-12-31T13:18:46.518Z,23.90
2022-12-31T13:21:31.772Z,24.58
2022-12-31T13:24:06.976Z,26.42
2022-12-31T13:26:40.135Z,24.88
2022-12-31T13:29:18.516Z,26.67
2022-12-31T13:31:48.628Z,27.20
2022-12-31T13:34:22.236Z,25.70
2022-12-31T13:36:54.142Z,30.55
2022-12-31T13:39:26.660Z,32.75
2022-12-31T13:41:59.983Z,31.85
2022-12-31T13:44:43.303Z,29.73
2022-12-31T13:47:16.540Z,36.10
2022-12-31T13:49:47.927Z,34.80
2022-12-31T13:52:25.965Z,34.05
2022-12-31T13:55:02.756Z,29.92
2022-12-31T13:57:43.326Z,32.85
2022-12-31T14:00:22.992Z,33.90
2022-12-31T14:03:07.943Z,36.17
2022-12-31T14:05:41.515Z,37.78
2022-12-31T14:08:09.980Z,33.67
2022-12-31T14:10:58.969Z,33.05
2022-12-31T14:13:37.578Z,32.10
2022-12-31T14:16:18.777Z,33.97
2022-12-31T14:18:55.347Z,35.88
2022-12-31T14:21:29.369Z,35.03
2022-12-31T14:24:03.678Z,37.33
2022-12-31T14:26:35.212Z,35.30
2022-12-31T14:29:15.670Z,36.30
2022-12-31T14:32:02.570Z,40.07
2022-12-31T14:34:38.904Z,36.07
2022-12-31T14:37:14.943Z,44.13
2022-12-31T14:39:55.938Z,38.97
2022-12-31T14:42:34.148Z,40.10
2022-12-31T14:45:19.010Z,43.03
2022-12-31T14:47:54.866Z,39.83
2022-12-31T14:50:26.450Z,45.20
2022-12-31T14:53:09.436Z,46.63
2022-12-31T14:55:38.579Z,47.33
2022-12-31T14:58:32.389Z,47.40
2022-12-31T15:01:03.497Z,51.00
2022-12-31T15:03:45.862Z,54.30
2022-12-31T15:06:48.459Z,47.77
2022-12-31T15:09:30.071Z,53.70
2022-12-31T15:12:30.332Z,48.97
2022-12-31T15:15:11.326Z,51.40
2022-12-31T15:17:50.443Z,53.63
2022-12-31T15:20:55.187Z,55.27
2022-12-31T15:23:27.008Z,57.77
2022-12-31T15:25:59.600Z,56.50
2022-12-31T15:28:36.703Z,56.17
2022-12-31T15:31:18.823Z,71.57
2022-12-31T15:33:59.746Z,61.70
2022-12-31T15:36:30.591Z,62.37
2022-12-31T15:39:28.663Z,66.03
2022-12-31T15:44:50.823Z,68.85
2022-12-31T15:47:28.313Z,65.67
2022-12-31T15:49:58.870Z,70.87
2022-12-31T15:52:32.493Z,70.33
2022-12-31T15:55:05.582Z,65.30
2022-12-31T15:57:38.573Z,71.00
2022-12-31T16:00:09.119Z,64.37
2022-12-31T16:02:39.253Z,66.13
2022-12-31T16:05:08.222Z,69.30
2022-12-31T16:07:36.566Z,76.27
2022-12-31T16:10:07.910Z,67.80
2022-12-31T16:12:44.304Z,67.33
2022-12-31T16:15:22.396Z,72.25
2022-12-31T16:18:02.367Z,66.83
2022-12-31T16:20:33.802Z,65.90
2022-12-31T16:23:18.282Z,65.93
2022-12-31T16:25:48.434Z,64.70
2022-12-31T16:28:19.662Z,65.83
2022-12-31T16:30:58.458Z,67.17
2022-12-31T16:33:27.570Z,74.20
2022-12-31T16:35:57.871Z,65.13
2022-12-31T16:38:33.839Z,63.93
2022-12-31T16:41:18.754Z,63.37
2022-12-31T16:43:48.593Z,56.07
2022-12-31T16:46:21.717Z,65.83
2022-12-31T16:48:54.303Z,62.13
2022-12-31T16:51:27.036Z,64.50
2022-12-31T16:53:55.731Z,61.67
2022-12-31T16:56:34.197Z,60.53
2022-12-31T16:59:08.826Z,64.67
2022-12-31T17:01:39.595Z,59.87
2022-12-31T17:04:11.954Z,55.30
2022-12-31T17:06:40.458Z,58.70
2022-12-31T17:09:21.053Z,60.50
2022-12-31T17:11:56.468Z,56.20
2022-12-31T17:14:26.933Z,57.67
2022-12-31T17:17:02.780Z,55.87
2022-12-31T17:19:45.158Z,56.43
2022-12-31T17:22:24.142Z,50.17
2022-12-31T17:25:05.649Z,57.20
2022-12-31T17:27:37.358Z,60.50
2022-12-31T17:30:42.025Z,50.57
2022-12-31T17:33:30.855Z,54.50
2022-12-31T17:36:16.155Z,56.47
2022-12-31T17:38:44.741Z,52.40
2022-12-31T17:41:22.445Z,57.70
2022-12-31T17:43:56.265Z,56.40
2022-12-31T17:46:31.895Z,55.63
2022-12-31T17:49:03.990Z,50.33
2022-12-31T17:51:32.566Z,53.97
2022-12-31T17:54:01.767Z,55.30
2022-12-31T17:56:30.259Z,54.73
2022-12-31T17:59:06.275Z,55.00
2022-12-31T18:01:40.647Z,54.17
2022-12-31T18:04:13.727Z,54.10
2022-12-31T18:06:42.672Z,61.27
2022-12-31T18:09:11.807Z,54.43
2022-12-31T18:11:42.394Z,55.10
2022-12-31T18:14:22.569Z,53.93
2022-12-31T18:16:53.693Z,57.10
2022-12-31T18:19:54.407Z,57.87
2022-12-31T18:22:17.187Z,63.90
2022-12-31T18:25:23.116Z,58.60
2022-12-31T18:27:54.554Z,61.38
2022-12-31T18:30:26.503Z,54.67
2022-12-31T18:33:00.941Z,56.97
2022-12-31T18:38:19.646Z,54.53
2022-12-31T18:41:00.679Z,61.27
2022-12-31T18:43:29.148Z,65.83
2022-12-31T18:45:59.404Z,59.30
2022-12-31T18:48:29.450Z,68.57
2022-12-31T18:50:58.122Z,63.07
2022-12-31T18:53:26.492Z,63.43
2022-12-31T18:56:00.478Z,64.50
2022-12-31T18:58:28.890Z,58.10
2022-12-31T19:00:58.905Z,67.83
2022-12-31T19:03:28.638Z,62.80
2022-12-31T19:05:59.462Z,58.57
2022-12-31T19:08:27.838Z,63.97
2022-12-31T19:10:56.310Z,64.17
2022-12-31T19:13:28.071Z,61.97
2022-12-31T19:15:56.729Z,71.30
2022-12-31T19:18:33.133Z,73.50
2022-12-31T19:21:07.078Z,75.10
2022-12-31T19:23:36.054Z,73.83
2022-12-31T19:26:07.009Z,86.97
2022-12-31T19:28:40.215Z,87.03
2022-12-31T19:31:08.638Z,75.57
2022-12-31T19:33:47.301Z,64.03
2022-12-31T19:36:22.559Z,70.63
2022-12-31T19:38:59.595Z,66.60
2022-12-31T19:41:33.346Z,65.57
2022-12-31T19:44:03.793Z,69.30
2022-12-31T19:46:32.195Z,67.37
2022-12-31T19:49:01.978Z,133.77
2022-12-31T19:51:30.392Z,68.73
2022-12-31T19:53:58.797Z,59.53
2022-12-31T19:56:27.198Z,62.10
2022-12-31T19:59:04.142Z,64.57
2022-12-31T20:01:35.215Z,66.13
2022-12-31T20:04:05.431Z,64.13
2022-12-31T20:06:36.678Z,64.77
2022-12-31T20:09:05.852Z,64.63
2022-12-31T20:11:34.139Z,59.33
2022-12-31T20:14:02.599Z,59.77
2022-12-31T20:16:31.959Z,60.00
2022-12-31T20:19:06.151Z,65.13
2022-12-31T20:21:38.881Z,69.80
2022-12-31T20:24:09.456Z,66.10
2022-12-31T20:26:40.493Z,64.27
2022-12-31T20:29:08.864Z,59.13
2022-12-31T20:31:37.205Z,60.67
2022-12-31T20:34:22.182Z,57.07
2022-12-31T20:36:52.955Z,67.80
2022-12-31T20:39:22.552Z,66.77
2022-12-31T20:41:50.999Z,61.70
2022-12-31T20:44:22.465Z,60.40
2022-12-31T20:46:54.020Z,56.63
2022-12-31T20:49:52.161Z,66.05
2022-12-31T20:52:12.253Z,60.37
2022-12-31T20:54:40.751Z,60.83
2022-12-31T20:57:09.067Z,63.73
2022-12-31T20:59:37.455Z,64.67
2022-12-31T21:02:20.896Z,75.40
2022-12-31T21:04:51.421Z,74.23
2022-12-31T21:07:19.960Z,69.47
2022-12-31T21:09:48.495Z,68.97
2022-12-31T21:12:34.156Z,76.23
2022-12-31T21:15:03.532Z,80.07
2022-12-31T21:17:31.849Z,65.77
2022-12-31T21:20:01.646Z,67.50
2022-12-31T21:22:30.203Z,63.07
2022-12-31T21:25:01.098Z,66.60
2022-12-31T21:27:29.703Z,70.60
2022-12-31T21:32:46.625Z,61.73
2022-12-31T21:35:42.640Z,62.40
2022-12-31T21:38:05.965Z,54.53
2022-12-31T21:40:34.619Z,53.13
2022-12-31T21:43:03.077Z,47.00
2022-12-31T21:45:31.405Z,46.40
2022-12-31T21:48:17.706Z,51.78
2022-12-31T21:50:48.656Z,105.13
2022-12-31T21:53:23.450Z,69.10
2022-12-31T21:56:14.662Z,52.40
2022-12-31T21:58:44.545Z,100.03
2022-12-31T22:01:35.397Z,96.13
2022-12-31T22:04:04.190Z,188.73
2022-12-31T22:06:34.803Z,186.20
2022-12-31T22:09:03.479Z,178.27
2022-12-31T22:11:31.920Z,156.33
2022-12-31T22:14:01.931Z,105.33
2022-12-31T22:16:30.253Z,86.77
2022-12-31T22:18:58.630Z,65.33
2022-12-31T22:21:27.807Z,99.07
2022-12-31T22:23:59.574Z,119.23
2022-12-31T22:26:30.050Z,161.57
2022-12-31T22:28:59.685Z,165.70
2022-12-31T22:31:30.594Z,126.03
2022-12-31T22:33:59.896Z,116.53
2022-12-31T22:36:28.491Z,104.93
2022-12-31T22:38:59.224Z,92.83
2022-12-31T22:41:28.846Z,79.47
2022-12-31T22:44:03.644Z,80.13
2022-12-31T22:46:32.488Z,86.60
2022-12-31T22:49:03.385Z,89.57
2022-12-31T22:51:57.758Z,84.07
2022-12-31T22:54:27.431Z,85.60
2022-12-31T22:56:57.818Z,98.05
2022-12-31T22:59:28.948Z,84.23
2022-12-31T23:01:57.340Z,81.30
2022-12-31T23:04:25.706Z,80.67
2022-12-31T23:06:56.459Z,79.60
2022-12-31T23:09:43.568Z,81.63
2022-12-31T23:12:12.502Z,82.53
2022-12-31T23:14:58.261Z,77.67
2022-12-31T23:17:45.744Z,77.37
2022-12-31T23:20:35.123Z,73.90
2022-12-31T23:23:12.923Z,73.60
2022-12-31T23:25:45.413Z,68.17
2022-12-31T23:28:16.125Z,62.03
2022-12-31T23:30:45.316Z,64.63
2022-12-31T23:33:16.780Z,65.67
2022-12-31T23:35:45.438Z,67.77
2022-12-31T23:38:13.876Z,66.63
2022-12-31T23:40:43.874Z,58.80
2022-12-31T23:43:20.620Z,56.53
2022-12-31T23:45:49.789Z,61.20
2022-12-31T23:48:18.207Z,55.77
2022-12-31T23:50:52.920Z,64.03
2022-12-31T23:53:22.378Z,60.57
2022-12-31T23:55:53.965Z,61.67
2022-12-31T23:58:22.978Z,60.33
